KINS/INS METAR and TAF weather

Enter ICAO airport designator
Station Type Date Time Source
KINS METAR 2019/08/22 06:58 UTC NOAA

KINS 220658Z AUTO 00000KT 10SM CLR 30/M14 A2980 RMK AO2 SLP033 T02961141 $


Station Type Date Time Source
KINS Decoded METAR 2019/08/22 06:58 UTC NOAA

Station name not available
Aug 22, 2019 - 02:58 AM EDT / 2019.08.22 0658 UTC
Wind: Calm:0
Visibility: 10 mile(s):0
Sky conditions: clear
Temperature: 85.3 F (29.6 C)
Dew Point: 6.6 F (-14.1 C)
Relative Humidity: 4%
Pressure (altimeter): 29.8 in. Hg (1009 hPa)
ob: KINS 220658Z AUTO 00000KT 10SM CLR 30/M14 A2980 RMK AO2 SLP033 T02961141
cycle: 7

Station Type Date Time Source
KINS TAF 2019/08/22 05:57 UTC NOAA

TAF TAF KINS 220455Z 2205/2311 23009KT 9999 FEW250 QNH2986INS
BECMG 2206/2207 VRB06KT 9999 FEW250 QNH2982INS
BECMG 2217/2218 21015G25KT 9999 SCT250 QNH2973INS
BECMG 2302/2303 22009KT 9999 FEW250 QNH2977INS TX35/2221Z TN22/2212Z

Example: see airport list